Alexandra — WDD5677 — position and weather

sailwx.info

Track history (hours):
 
Tides and Currents Weather Stations Pressure Air Temp Water Temp Dewpoint Dewpoint Depression Visibility Wind Speed Wind Dir Waves Ship Positions

Alexandra

Owner: Weeks Marine, Inc., Cranford, NJ. More information available from US FCC via Universal Licensing System and Coast Guard Vessel Documentation Center.

Last reported at 2018-Jan-05 01:03 UTC. Time now 2018-Feb-22 07:29 UTC.
Position N 25°23' W 080°03'.
Warning: this ship's position is 48 days out of date.

Length 37 m; draft 4.9 m.

Type: Tug. MMSI: 367161950.

Date/timePositionNaut miles runAvg speedWind from/ knotsBaromVisibWave heightAir tempDewpointWater temp
2018-Jan-05 01:03N 25°23' W 080°03'111.3
2018-Jan-05 01:00N 25°24' W 080°03'611.7
2018-Jan-05 00:30N 25°30' W 080°03'612.3
2018-Jan-05 00:00N 25°36' W 080°03'612.6
2018-Jan-04 23:30N 25°42' W 080°04'612.2
2018-Jan-04 23:00N 25°48' W 080°04'612.1
2018-Jan-04 22:30N 25°54' W 080°04'611.8
2018-Jan-04 22:00N 26°00' W 080°04'611.8
2018-Jan-04 21:30N 26°06' W 080°03'510.8
2018-Jan-04 21:00N 26°12' W 080°03'611.0
2018-Jan-04 20:30N 26°17' W 080°03'1411.8
2018-Jan-04 19:18N 26°31' W 080°02'412.5
2018-Jan-04 18:59N 26°35' W 080°01'612.4
2018-Jan-04 18:30N 26°41' W 080°01'511.0
2018-Jan-04 18:00N 26°46' W 080°02'2 0.2
2018-Jan-04 09:26N 26°44' W 080°01'1 3.4
2018-Jan-04 09:00N 26°43' W 080°02'0 0.6
2018-Jan-04 08:30N 26°43' W 080°01'2 3.0
2018-Jan-04 08:00N 26°45' W 080°02'2 3.5
2018-Jan-04 07:30N 26°43' W 080°02'2 3.7
2018-Jan-04 07:01N 26°41' W 080°01'2 4.2
2018-Jan-04 06:30N 26°39' W 080°00'2 4.3
2018-Jan-04 06:00N 26°37' W 080°01'6 2.4
2018-Jan-04 03:45N 26°32' W 080°02'1 5.5
2018-Jan-04 03:30N 26°33' W 080°02'3 5.6
2018-Jan-04 03:00N 26°35' W 080°01'3 5.7
2018-Jan-04 02:30N 26°38' W 080°01'3 5.5
2018-Jan-04 02:00N 26°41' W 080°01'3 5.4
2018-Jan-04 01:30N 26°44' W 080°01'0 0.5
2018-Jan-04 01:00N 26°43' W 080°01'2 4.3
2018-Jan-04 00:30N 26°41' W 080°01'2 4.1
2018-Jan-04 00:00N 26°39' W 080°01'2 4.0
2018-Jan-03 23:29N 26°37' W 080°01'8 3.5
2018-Jan-03 21:16N 26°30' W 080°02'2 6.4
2018-Jan-03 20:56N 26°32' W 080°02'3 6.0
2018-Jan-03 20:25N 26°35' W 080°01'2 5.7
2018-Jan-03 20:00N 26°37' W 080°01'3 5.7
2018-Jan-03 19:30N 26°40' W 080°01'3 5.2
2018-Jan-03 19:00N 26°43' W 080°01'2 4.2
2018-Jan-03 18:30N 26°44' W 080°00'1 1.3
2018-Jan-03 18:00N 26°44' W 080°01'0 0.9
2018-Jan-03 17:30N 26°45' W 080°01'3 5.1
2018-Jan-03 17:00N 26°47' W 080°01'1 2.2
2018-Jan-03 16:30N 26°48' W 080°00'3 5.6
2018-Jan-03 16:00N 26°51' W 080°01'5 9.4
2018-Jan-03 15:30N 26°56' W 080°02'510.4
2018-Jan-03 15:00N 27°01' W 080°03'  
2017-Dec-31 17:58N 36°49' W 075°54'4 9.6
2017-Dec-31 17:30N 36°53' W 075°56'5 9.8
2017-Dec-31 17:00N 36°57' W 076°01'611.2
2017-Dec-31 16:30N 36°58' W 076°07'1010.1
2017-Dec-31 15:29N 36°57' W 076°20'510.0
2017-Dec-31 15:00N 36°52' W 076°20'1 2.2
2017-Dec-31 14:30N 36°51' W 076°19'0 0.0
2017-Dec-31 14:00N 36°51' W 076°19'2 3.9
2017-Dec-31 13:29N 36°53' W 076°20'5 6.1
2017-Dec-31 12:37N 36°59' W 076°21'184 8.3
2017-Dec-30 14:25N 39°32' W 074°11'4 8.5
2017-Dec-30 13:59N 39°36' W 074°09'4 8.5
2017-Dec-30 13:29N 39°39' W 074°06'5 8.5
2017-Dec-30 12:56N 39°44' W 074°03'52 7.5
2017-Dec-30 05:56N 40°36' W 074°03'3 7.1
2017-Dec-30 05:28N 40°39' W 074°04'1 3.1
2017-Dec-30 05:01N 40°40' W 074°04'0 0.0
2017-Dec-30 04:31N 40°40' W 074°04'0 0.1
2017-Dec-30 04:00N 40°40' W 074°04'0 0.5
2017-Dec-30 03:30N 40°41' W 074°05'0 0.0
2017-Dec-30 03:00N 40°41' W 074°05'2 0.3
2017-Dec-29 19:57N 40°39' W 074°07'2 5.1
2017-Dec-29 19:30N 40°40' W 074°04'0 0.2
2017-Dec-29 19:00N 40°41' W 074°05'0 0.0
2017-Dec-29 18:30N 40°41' W 074°05'0 0.0
2017-Dec-29 18:00N 40°41' W 074°05'0 0.0
2017-Dec-29 17:30N 40°41' W 074°05'0 0.0
2017-Dec-29 17:00N 40°41' W 074°05'0 0.0
2017-Dec-29 16:30N 40°41' W 074°05'0 0.0
2017-Dec-29 16:00N 40°41' W 074°05'0 0.0
2017-Dec-29 15:30N 40°41' W 074°05'0 0.0
2017-Dec-29 15:00N 40°41' W 074°05'0 0.0
2017-Dec-29 14:30N 40°41' W 074°05'0 0.0
2017-Dec-29 14:00N 40°41' W 074°05'0 0.0
2017-Dec-29 13:30N 40°41' W 074°05'0 0.0
2017-Dec-29 13:00N 40°41' W 074°05'0 0.0
2017-Dec-29 12:30N 40°41' W 074°05'0 0.0
2017-Dec-29 12:00N 40°41' W 074°05'0 0.0
2017-Dec-29 11:30N 40°41' W 074°05'0 0.0
2017-Dec-29 10:59N 40°41' W 074°05'0 0.0
2017-Dec-29 10:30N 40°41' W 074°05'0 0.0
2017-Dec-29 10:00N 40°41' W 074°05'0 0.0
2017-Dec-29 09:30N 40°41' W 074°05'0 0.0
2017-Dec-29 09:00N 40°41' W 074°05'0 0.0
2017-Dec-29 08:30N 40°41' W 074°05'0 0.0
2017-Dec-29 08:00N 40°41' W 074°05'0 0.0
2017-Dec-29 07:30N 40°41' W 074°05'1 1.5
2017-Dec-29 07:00N 40°40' W 074°04'4 8.8
2017-Dec-29 06:30N 40°36' W 074°02'45 8.3
2017-Dec-29 01:01N 39°50' W 074°04'3 9.9
2017-Dec-29 00:42N 39°47' W 074°04'3 9.9
2017-Dec-29 00:27N 39°45' W 074°04'510.3
2017-Dec-28 23:58N 39°40' W 074°06'  
Track history (hours):
 
Tides and Currents Weather Stations Pressure Air Temp Water Temp Dewpoint Dewpoint Depression Visibility Wind Speed Wind Dir Waves Ship Positions

Alexandra

Owner: Weeks Marine, Inc., Cranford, NJ. More information available from US FCC via Universal Licensing System and Coast Guard Vessel Documentation Center.

Last reported at 2018-Jan-05 01:03 UTC. Time now 2018-Feb-22 07:29 UTC.
Position N 25°23' W 080°03'.
Warning: this ship's position is 48 days out of date.

Length 37 m; draft 4.9 m.

Type: Tug. MMSI: 367161950.

Date/timePositionNaut miles runAvg speedWind from/ knotsBaromVisibWave heightAir tempDewpointWater temp
2018-Jan-05 01:03N 25°23' W 080°03'111.3
2018-Jan-05 01:00N 25°24' W 080°03'611.7
2018-Jan-05 00:30N 25°30' W 080°03'612.3
2018-Jan-05 00:00N 25°36' W 080°03'612.6
2018-Jan-04 23:30N 25°42' W 080°04'612.2
2018-Jan-04 23:00N 25°48' W 080°04'612.1
2018-Jan-04 22:30N 25°54' W 080°04'611.8
2018-Jan-04 22:00N 26°00' W 080°04'611.8
2018-Jan-04 21:30N 26°06' W 080°03'510.8
2018-Jan-04 21:00N 26°12' W 080°03'611.0
2018-Jan-04 20:30N 26°17' W 080°03'1411.8
2018-Jan-04 19:18N 26°31' W 080°02'412.5
2018-Jan-04 18:59N 26°35' W 080°01'612.4
2018-Jan-04 18:30N 26°41' W 080°01'511.0
2018-Jan-04 18:00N 26°46' W 080°02'2 0.2
2018-Jan-04 09:26N 26°44' W 080°01'1 3.4
2018-Jan-04 09:00N 26°43' W 080°02'0 0.6
2018-Jan-04 08:30N 26°43' W 080°01'2 3.0
2018-Jan-04 08:00N 26°45' W 080°02'2 3.5
2018-Jan-04 07:30N 26°43' W 080°02'2 3.7
2018-Jan-04 07:01N 26°41' W 080°01'2 4.2
2018-Jan-04 06:30N 26°39' W 080°00'2 4.3
2018-Jan-04 06:00N 26°37' W 080°01'6 2.4
2018-Jan-04 03:45N 26°32' W 080°02'1 5.5
2018-Jan-04 03:30N 26°33' W 080°02'3 5.6
2018-Jan-04 03:00N 26°35' W 080°01'3 5.7
2018-Jan-04 02:30N 26°38' W 080°01'3 5.5
2018-Jan-04 02:00N 26°41' W 080°01'3 5.4
2018-Jan-04 01:30N 26°44' W 080°01'0 0.5
2018-Jan-04 01:00N 26°43' W 080°01'2 4.3
2018-Jan-04 00:30N 26°41' W 080°01'2 4.1
2018-Jan-04 00:00N 26°39' W 080°01'2 4.0
2018-Jan-03 23:29N 26°37' W 080°01'8 3.5
2018-Jan-03 21:16N 26°30' W 080°02'2 6.4
2018-Jan-03 20:56N 26°32' W 080°02'3 6.0
2018-Jan-03 20:25N 26°35' W 080°01'2 5.7
2018-Jan-03 20:00N 26°37' W 080°01'3 5.7
2018-Jan-03 19:30N 26°40' W 080°01'3 5.2
2018-Jan-03 19:00N 26°43' W 080°01'2 4.2
2018-Jan-03 18:30N 26°44' W 080°00'1 1.3
2018-Jan-03 18:00N 26°44' W 080°01'0 0.9
2018-Jan-03 17:30N 26°45' W 080°01'3 5.1
2018-Jan-03 17:00N 26°47' W 080°01'1 2.2
2018-Jan-03 16:30N 26°48' W 080°00'3 5.6
2018-Jan-03 16:00N 26°51' W 080°01'5 9.4
2018-Jan-03 15:30N 26°56' W 080°02'510.4
2018-Jan-03 15:00N 27°01' W 080°03'  
2017-Dec-31 17:58N 36°49' W 075°54'4 9.6
2017-Dec-31 17:30N 36°53' W 075°56'5 9.8
2017-Dec-31 17:00N 36°57' W 076°01'611.2
2017-Dec-31 16:30N 36°58' W 076°07'1010.1
2017-Dec-31 15:29N 36°57' W 076°20'510.0
2017-Dec-31 15:00N 36°52' W 076°20'1 2.2
2017-Dec-31 14:30N 36°51' W 076°19'0 0.0
2017-Dec-31 14:00N 36°51' W 076°19'2 3.9
2017-Dec-31 13:29N 36°53' W 076°20'5 6.1
2017-Dec-31 12:37N 36°59' W 076°21'184 8.3
2017-Dec-30 14:25N 39°32' W 074°11'4 8.5
2017-Dec-30 13:59N 39°36' W 074°09'4 8.5
2017-Dec-30 13:29N 39°39' W 074°06'5 8.5
2017-Dec-30 12:56N 39°44' W 074°03'52 7.5
2017-Dec-30 05:56N 40°36' W 074°03'3 7.1
2017-Dec-30 05:28N 40°39' W 074°04'1 3.1
2017-Dec-30 05:01N 40°40' W 074°04'0 0.0
2017-Dec-30 04:31N 40°40' W 074°04'0 0.1
2017-Dec-30 04:00N 40°40' W 074°04'0 0.5
2017-Dec-30 03:30N 40°41' W 074°05'0 0.0
2017-Dec-30 03:00N 40°41' W 074°05'2 0.3
2017-Dec-29 19:57N 40°39' W 074°07'2 5.1
2017-Dec-29 19:30N 40°40' W 074°04'0 0.2
2017-Dec-29 19:00N 40°41' W 074°05'0 0.0
2017-Dec-29 18:30N 40°41' W 074°05'0 0.0
2017-Dec-29 18:00N 40°41' W 074°05'0 0.0
2017-Dec-29 17:30N 40°41' W 074°05'0 0.0
2017-Dec-29 17:00N 40°41' W 074°05'0 0.0
2017-Dec-29 16:30N 40°41' W 074°05'0 0.0
2017-Dec-29 16:00N 40°41' W 074°05'0 0.0
2017-Dec-29 15:30N 40°41' W 074°05'0 0.0
2017-Dec-29 15:00N 40°41' W 074°05'0 0.0
2017-Dec-29 14:30N 40°41' W 074°05'0 0.0
2017-Dec-29 14:00N 40°41' W 074°05'0 0.0
2017-Dec-29 13:30N 40°41' W 074°05'0 0.0
2017-Dec-29 13:00N 40°41' W 074°05'0 0.0
2017-Dec-29 12:30N 40°41' W 074°05'0 0.0
2017-Dec-29 12:00N 40°41' W 074°05'0 0.0
2017-Dec-29 11:30N 40°41' W 074°05'0 0.0
2017-Dec-29 10:59N 40°41' W 074°05'0 0.0
2017-Dec-29 10:30N 40°41' W 074°05'0 0.0
2017-Dec-29 10:00N 40°41' W 074°05'0 0.0
2017-Dec-29 09:30N 40°41' W 074°05'0 0.0
2017-Dec-29 09:00N 40°41' W 074°05'0 0.0
2017-Dec-29 08:30N 40°41' W 074°05'0 0.0
2017-Dec-29 08:00N 40°41' W 074°05'0 0.0
2017-Dec-29 07:30N 40°41' W 074°05'1 1.5
2017-Dec-29 07:00N 40°40' W 074°04'4 8.8
2017-Dec-29 06:30N 40°36' W 074°02'45 8.3
2017-Dec-29 01:01N 39°50' W 074°04'3 9.9
2017-Dec-29 00:42N 39°47' W 074°04'3 9.9
2017-Dec-29 00:27N 39°45' W 074°04'510.3
2017-Dec-28 23:58N 39°40' W 074°06'  

Dump ship's entire track history